createdAt,value
2019-05-15T00:02:01.562Z,81.27
2019-05-15T00:07:01.654Z,83.36
2019-05-15T00:17:01.560Z,83.04
2019-05-15T00:22:01.553Z,83.04
2019-05-15T00:32:01.682Z,83.25
2019-05-15T00:48:01.683Z,84.16
2019-05-15T01:18:01.710Z,84.41
2019-05-15T01:34:01.600Z,85.43
2019-05-15T01:39:01.556Z,85.43
2019-05-15T01:54:01.604Z,85.35
2019-05-15T01:59:01.541Z,85.35
2019-05-15T02:04:01.717Z,85.22
2019-05-15T02:09:01.706Z,85.22
2019-05-15T02:14:01.720Z,85.29
2019-05-15T02:24:01.704Z,86.38
2019-05-15T02:29:01.670Z,86.38
2019-05-15T02:34:01.668Z,87.18
2019-05-15T02:44:01.703Z,86.67
2019-05-15T02:54:01.725Z,86.16
2019-05-15T03:09:01.792Z,87.35
2019-05-15T03:24:01.766Z,86.94
2019-05-15T03:29:01.762Z,86.94
2019-05-15T03:44:01.702Z,86.92
2019-05-15T03:59:01.696Z,86.84
2019-05-15T04:14:01.792Z,86.69
2019-05-15T04:19:01.698Z,86.69
2019-05-15T04:24:01.747Z,86.69
2019-05-15T04:34:01.808Z,86.99
2019-05-15T04:44:02.647Z,85.55
2019-05-15T04:49:01.767Z,85.55
2019-05-15T04:54:01.722Z,86.23
2019-05-15T04:59:01.854Z,86.23
2019-05-15T05:04:01.745Z,86.02
2019-05-15T05:09:01.766Z,86.02
2019-05-15T05:14:01.530Z,86.41
2019-05-15T05:19:01.752Z,86.41
2019-05-15T05:24:01.707Z,85.38
2019-05-15T05:29:02.117Z,85.38
2019-05-15T05:34:01.718Z,83.67
2019-05-15T05:39:01.795Z,83.67
2019-05-15T05:44:01.845Z,82.6
2019-05-15T05:49:01.733Z,82.6
2019-05-15T05:54:01.720Z,80.19
2019-05-15T05:59:01.650Z,80.19
2019-05-15T06:05:01.728Z,75.21
2019-05-15T06:10:01.550Z,75.21
2019-05-15T06:15:01.913Z,70.73
2019-05-15T06:20:01.579Z,70.73
2019-05-15T06:25:05.563Z,65.29
2019-05-15T06:30:02.445Z,65.29
2019-05-15T06:35:01.779Z,59.74
2019-05-15T06:40:01.640Z,59.74
2019-05-15T06:45:01.898Z,54.37
2019-05-15T06:50:01.574Z,54.37
2019-05-15T06:55:01.630Z,53.9
2019-05-15T07:00:01.850Z,53.9
2019-05-15T07:05:01.784Z,52.12
2019-05-15T07:10:01.656Z,52.12
2019-05-15T07:15:01.874Z,51.27
2019-05-15T07:20:02.425Z,51.27
2019-05-15T07:25:01.676Z,49.62
2019-05-15T07:30:01.776Z,49.62
2019-05-15T07:35:01.820Z,48.92
2019-05-15T07:40:01.642Z,48.92
2019-05-15T07:45:01.870Z,49.08
2019-05-15T07:50:01.611Z,49.08
2019-05-15T07:55:01.732Z,45.93
2019-05-15T08:00:01.773Z,45.93
2019-05-15T08:05:02.221Z,45.35
2019-05-15T08:10:01.579Z,45.35
2019-05-15T08:15:01.888Z,43.89
2019-05-15T08:20:01.586Z,43.89
2019-05-15T08:25:01.640Z,43.74
2019-05-15T08:31:02.545Z,43.74
2019-05-15T08:36:01.657Z,42.55
2019-05-15T08:41:01.841Z,42.55
2019-05-15T08:46:01.557Z,40.76
2019-05-15T08:51:01.556Z,40.76
2019-05-15T08:56:01.685Z,40.46
2019-05-15T09:01:01.619Z,40.46
2019-05-15T09:06:01.633Z,40.32
2019-05-15T09:16:01.408Z,40.92
2019-05-15T09:27:01.676Z,38.78
2019-05-15T09:37:01.773Z,40.53
2019-05-15T09:42:01.551Z,40.53
2019-05-15T09:47:01.550Z,38.17
2019-05-15T09:52:01.553Z,38.17
2019-05-15T10:07:01.908Z,35.08
2019-05-15T10:12:01.740Z,35.08
2019-05-15T10:17:01.591Z,34.17
2019-05-15T10:28:01.619Z,33.83
2019-05-15T10:33:01.771Z,33.83
2019-05-15T10:43:01.618Z,33.67
2019-05-15T10:48:01.622Z,32.51
2019-05-15T10:58:01.755Z,34.12
2019-05-15T11:03:01.651Z,34.12
2019-05-15T11:08:01.631Z,38.68
2019-05-15T11:13:01.619Z,38.68
2019-05-15T11:18:01.579Z,36.59
2019-05-15T11:33:01.598Z,32.05
2019-05-15T11:38:01.582Z,29.98
2019-05-15T11:43:01.793Z,29.98
2019-05-15T11:48:01.584Z,28.45
2019-05-15T11:53:02.061Z,28.45
2019-05-15T11:58:01.592Z,29.65
2019-05-15T12:13:01.658Z,29.38
2019-05-15T12:18:01.551Z,30.52
2019-05-15T12:23:01.674Z,30.52
2019-05-15T12:38:01.551Z,30.27
2019-05-15T14:10:00.898Z,30.42
2019-05-15T15:20:02.485Z,34.34
2019-05-15T15:25:01.228Z,36.3
2019-05-15T15:35:01.052Z,36.05
2019-05-15T15:40:00.954Z,36.05
2019-05-15T15:45:01.139Z,35.22
2019-05-15T15:50:00.927Z,35.22
2019-05-15T15:55:01.057Z,36.38
2019-05-15T16:00:01.108Z,36.38
2019-05-15T16:05:01.100Z,39.27
2019-05-15T16:10:01.025Z,39.27
2019-05-15T16:15:01.145Z,37.27
2019-05-15T16:20:01.386Z,37.27
2019-05-15T16:25:02.875Z,36.63
2019-05-15T16:30:01.073Z,36.63
2019-05-15T16:35:02.057Z,38.2
2019-05-15T16:40:01.082Z,38.2
2019-05-15T16:45:01.079Z,36.81
2019-05-15T16:50:01.794Z,36.81
2019-05-15T17:00:01.172Z,41.04
2019-05-15T17:15:02.560Z,44.33
2019-05-15T18:20:01.954Z,47.65
2019-05-15T18:35:02.444Z,51.0
2019-05-15T19:05:02.727Z,54.48
2019-05-15T19:10:01.134Z,54.48
2019-05-15T19:50:01.202Z,60.3
2019-05-15T20:10:01.210Z,65.17
2019-05-15T21:10:01.055Z,71.43
2019-05-15T22:05:01.114Z,76.88
2019-05-15T22:10:01.101Z,76.88
2019-05-15T22:15:01.174Z,77.83
2019-05-15T22:20:01.035Z,77.83
2019-05-15T22:25:01.042Z,78.71
2019-05-15T22:30:01.080Z,78.71
2019-05-15T22:35:14.383Z,79.32
2019-05-15T22:45:01.124Z,79.54
2019-05-15T22:55:01.210Z,79.92
2019-05-15T23:00:01.088Z,79.92
2019-05-15T23:05:01.088Z,81.46
2019-05-15T23:15:01.124Z,81.13
2019-05-15T23:25:02.914Z,82.2
2019-05-15T23:30:01.069Z,82.2
2019-05-15T23:35:01.190Z,82.12
2019-05-15T23:45:01.120Z,83.42
2019-05-15T23:50:01.066Z,83.42
